createdAt,value
2022-09-10T00:01:04.883Z,98049.28
2022-09-10T00:06:09.601Z,98054.63
2022-09-10T00:11:12.425Z,98049.91
2022-09-10T00:16:19.195Z,98060.47
2022-09-10T00:21:22.554Z,98055.94
2022-09-10T00:26:27.623Z,98046.88
2022-09-10T00:31:33.472Z,98051.38
2022-09-10T00:36:39.663Z,98034.78
2022-09-10T00:41:44.547Z,98036.59
2022-09-10T00:46:52.574Z,98029.38
2022-09-10T00:51:55.532Z,98038.38
2022-09-10T00:57:03.767Z,98051.66
2022-09-10T01:02:08.735Z,98053.31
2022-09-10T01:07:13.619Z,98054.16
2022-09-10T01:12:34.376Z,98062.53
2022-09-10T01:17:56.069Z,98051.66
2022-09-10T01:23:17.767Z,98050.31
2022-09-10T01:28:31.568Z,98042.41
2022-09-10T01:33:41.730Z,98046.97
2022-09-10T01:38:45.277Z,98048.78
2022-09-10T01:43:49.990Z,98056.81
2022-09-10T01:49:23.316Z,98044.97
2022-09-10T01:54:46.518Z,98038.59
2022-09-10T01:59:59.925Z,98028.69
2022-09-10T02:05:04.321Z,98030.91
2022-09-10T02:10:10.118Z,98020.72
2022-09-10T02:15:22.342Z,98014.81
2022-09-10T02:20:42.906Z,98018.69
2022-09-10T02:25:47.096Z,98018.38
2022-09-10T02:30:51.256Z,98020.53
2022-09-10T02:35:54.511Z,98037.69
2022-09-10T02:40:59.387Z,98033.66
2022-09-10T02:46:03.699Z,98028.78
2022-09-10T02:51:06.676Z,98026.63
2022-09-10T02:56:09.471Z,98028.31
2022-09-10T03:01:17.574Z,98023.75
2022-09-10T03:06:25.801Z,98014.03
2022-09-10T03:11:29.263Z,98007.69
2022-09-10T03:16:35.577Z,98014.56
2022-09-10T03:21:41.746Z,98009.34
2022-09-10T03:26:47.248Z,98014.72
2022-09-10T03:31:53.296Z,98000.31
2022-09-10T03:36:57.300Z,98009.19
2022-09-10T03:42:00.148Z,98004.50
2022-09-10T03:47:06.182Z,98013.09
2022-09-10T03:52:12.524Z,98013.09
2022-09-10T03:57:17.183Z,98015.13
2022-09-10T04:02:21.648Z,98016.63
2022-09-10T04:07:24.483Z,98013.25
2022-09-10T04:12:27.579Z,98014.25
2022-09-10T04:17:31.979Z,98015.13
2022-09-10T04:22:35.490Z,98004.53
2022-09-10T04:27:38.345Z,98006.56
2022-09-10T04:32:44.344Z,98014.13
2022-09-10T04:37:47.145Z,98012.94
2022-09-10T04:42:50.405Z,98016.31
2022-09-10T04:47:55.982Z,98012.63
2022-09-10T04:52:58.999Z,98030.88
2022-09-10T04:58:02.349Z,98022.16
2022-09-10T05:03:07.075Z,98023.34
2022-09-10T05:08:10.269Z,98020.50
2022-09-10T05:13:14.427Z,98025.69
2022-09-10T05:18:18.491Z,98022.69
2022-09-10T05:23:21.319Z,98021.69
2022-09-10T05:28:24.849Z,98024.03
2022-09-10T05:33:29.600Z,98032.56
2022-09-10T05:38:32.587Z,98035.44
2022-09-10T05:43:36.362Z,98040.78
2022-09-10T05:48:41.819Z,98039.78
2022-09-10T05:53:46.435Z,98040.31
2022-09-10T05:58:49.614Z,98037.78
2022-09-10T06:03:55.119Z,98036.09
2022-09-10T06:08:58.607Z,98040.13
2022-09-10T06:14:14.822Z,98044.81
2022-09-10T06:19:19.812Z,98050.19
2022-09-10T06:24:23.553Z,98052.69
2022-09-10T06:29:30.405Z,98054.69
2022-09-10T06:34:35.759Z,98062.25
2022-09-10T06:39:40.058Z,98071.63
2022-09-10T06:44:44.189Z,98055.69
2022-09-10T06:50:01.487Z,98058.00
2022-09-10T06:55:07.682Z,98061.44
2022-09-10T07:00:20.234Z,98079.28
2022-09-10T07:05:29.374Z,98078.47
2022-09-10T07:10:33.726Z,98082.34
2022-09-10T07:15:37.940Z,98085.91
2022-09-10T07:20:43.729Z,98080.88
2022-09-10T07:25:47.399Z,98082.38
2022-09-10T07:31:16.557Z,98087.44
2022-09-10T07:36:22.679Z,98094.81
2022-09-10T07:41:29.620Z,98099.34
2022-09-10T07:46:35.027Z,98086.38
2022-09-10T07:51:40.673Z,98095.38
2022-09-10T07:56:44.113Z,98097.53
2022-09-10T08:01:50.887Z,98101.41
2022-09-10T08:06:58.163Z,98103.63
2022-09-10T08:12:03.067Z,98109.19
2022-09-10T08:17:06.046Z,98105.47
2022-09-10T08:22:15.312Z,98109.19
2022-09-10T08:27:25.163Z,98115.38
2022-09-10T08:32:29.018Z,98121.25
2022-09-10T08:37:34.652Z,98122.25
2022-09-10T08:42:42.910Z,98119.03
2022-09-10T08:47:55.383Z,98135.72
2022-09-10T08:53:10.784Z,98128.50
2022-09-10T08:58:19.474Z,98135.38
2022-09-10T09:03:28.805Z,98131.19
2022-09-10T09:08:36.542Z,98143.13
2022-09-10T09:13:59.825Z,98136.72
2022-09-10T09:19:14.194Z,98144.56
2022-09-10T09:24:23.999Z,98150.25
2022-09-10T09:29:35.524Z,98147.59
2022-09-10T09:34:42.587Z,98147.59
2022-09-10T09:40:04.663Z,98137.38
2022-09-10T09:45:20.979Z,98137.28
2022-09-10T09:50:24.409Z,98137.47
2022-09-10T09:55:33.651Z,98153.88
2022-09-10T10:00:38.006Z,98152.72
2022-09-10T10:05:40.851Z,98142.38
2022-09-10T10:10:44.937Z,98144.25
2022-09-10T10:15:48.863Z,98129.69
2022-09-10T10:21:13.437Z,98124.69
2022-09-10T10:26:38.489Z,98132.47
2022-09-10T10:31:43.531Z,98130.88
2022-09-10T10:36:56.282Z,98118.13
2022-09-10T10:42:05.739Z,98109.97
2022-09-10T10:47:32.839Z,98113.69
2022-09-10T10:52:47.155Z,98107.53
2022-09-10T10:58:13.005Z,98121.25
2022-09-10T11:03:21.222Z,98120.66
2022-09-10T11:08:33.639Z,98111.47
2022-09-10T11:13:43.455Z,98128.22
2022-09-10T11:18:53.971Z,98128.06
2022-09-10T11:24:02.537Z,98120.69
2022-09-10T11:29:23.048Z,98111.50
2022-09-10T11:34:34.493Z,98103.03
2022-09-10T11:39:43.342Z,98104.16
2022-09-10T11:44:58.150Z,98103.69
2022-09-10T11:50:06.979Z,98103.06
2022-09-10T11:55:16.068Z,98096.72
2022-09-10T12:00:22.307Z,98101.19
2022-09-10T12:05:31.319Z,98099.16
2022-09-10T12:10:40.673Z,98093.97
2022-09-10T12:15:52.584Z,98119.59
2022-09-10T12:20:59.317Z,98119.97
2022-09-10T12:26:09.419Z,98130.91
2022-09-10T12:31:15.168Z,98116.06
2022-09-10T12:36:58.144Z,98115.75
2022-09-10T12:42:02.554Z,98110.84
2022-09-10T12:47:34.615Z,98110.19
2022-09-10T12:52:50.874Z,98107.22
2022-09-10T12:58:03.491Z,98102.75
2022-09-10T13:03:17.731Z,98103.28
2022-09-10T13:08:25.267Z,98102.28
2022-09-10T13:13:37.556Z,98093.53
2022-09-10T13:18:43.214Z,98093.97
2022-09-10T13:23:48.594Z,98096.06
2022-09-10T13:29:05.661Z,98105.00
2022-09-10T13:34:23.685Z,98125.41
2022-09-10T13:39:53.827Z,98124.50
2022-09-10T13:45:18.011Z,98131.22
2022-09-10T13:50:25.586Z,98126.06
2022-09-10T13:55:30.525Z,98126.38
2022-09-10T14:00:41.676Z,98127.44
2022-09-10T14:05:50.030Z,98111.78
2022-09-10T14:10:58.324Z,98118.97
2022-09-10T14:16:04.882Z,98121.31
2022-09-10T14:21:09.141Z,98111.78
2022-09-10T14:26:23.143Z,98116.16
2022-09-10T14:31:33.421Z,98111.59
2022-09-10T14:36:37.491Z,98111.59
2022-09-10T14:41:40.599Z,98116.78
2022-09-10T14:46:52.575Z,98110.41
2022-09-10T14:51:58.494Z,98103.34
2022-09-10T14:57:03.794Z,98103.56
2022-09-10T15:02:15.701Z,98098.75
2022-09-10T15:07:19.970Z,98096.78
2022-09-10T15:12:25.711Z,98099.66
2022-09-10T15:17:28.576Z,98106.44
2022-09-10T15:22:32.625Z,98104.25
2022-09-10T15:27:35.400Z,98101.78
2022-09-10T15:32:38.099Z,98097.31
2022-09-10T15:37:42.199Z,98098.84
2022-09-10T15:42:44.868Z,98100.22
2022-09-10T15:47:47.939Z,98097.13
2022-09-10T15:52:52.523Z,98094.03
2022-09-10T15:57:55.348Z,98088.84
2022-09-10T16:02:58.455Z,98091.69
2022-09-10T16:08:04.169Z,98088.34
2022-09-10T16:13:07.225Z,98085.53
2022-09-10T16:18:12.964Z,98086.44
2022-09-10T16:23:23.563Z,98085.31
2022-09-10T16:28:26.866Z,98086.63
2022-09-10T16:33:33.161Z,98098.69
2022-09-10T16:38:37.925Z,98101.28
2022-09-10T16:43:42.046Z,98102.72
2022-09-10T16:48:45.729Z,98105.09
2022-09-10T16:53:57.452Z,98105.81
2022-09-10T16:59:00.480Z,98107.75
2022-09-10T17:04:04.870Z,98105.88
2022-09-10T17:09:08.935Z,98113.53
2022-09-10T17:14:12.381Z,98111.44
2022-09-10T17:19:17.503Z,98112.38
2022-09-10T17:24:24.238Z,98104.34
2022-09-10T17:29:27.432Z,98098.13
2022-09-10T17:34:30.159Z,98100.72
2022-09-10T17:39:34.221Z,98105.66
2022-09-10T17:44:37.015Z,98112.88
2022-09-10T17:49:40.420Z,98113.25
2022-09-10T17:54:45.866Z,98116.66
2022-09-10T17:59:48.704Z,98122.38
2022-09-10T18:04:51.455Z,98122.06
2022-09-10T18:09:55.608Z,98130.28
2022-09-10T18:14:58.475Z,98136.03
2022-09-10T18:20:01.281Z,98137.69
2022-09-10T18:25:06.663Z,98138.06
2022-09-10T18:30:10.392Z,98142.09
2022-09-10T18:35:13.154Z,98140.78
2022-09-10T18:40:17.642Z,98150.50
2022-09-10T18:45:20.534Z,98156.06
2022-09-10T18:50:26.467Z,98177.94
2022-09-10T18:55:30.765Z,98179.13
2022-09-10T19:00:35.127Z,98178.75
2022-09-10T19:05:38.254Z,98174.22
2022-09-10T19:10:42.418Z,98175.22
2022-09-10T19:15:54.424Z,98183.22
2022-09-10T19:20:57.721Z,98180.72
2022-09-10T19:26:02.899Z,98185.56
2022-09-10T19:31:06.195Z,98193.41
2022-09-10T19:36:10.843Z,98197.28
2022-09-10T19:41:18.694Z,98189.03
2022-09-10T19:46:25.869Z,98194.72
2022-09-10T19:51:31.751Z,98198.09
2022-09-10T19:56:38.501Z,98208.16
2022-09-10T20:01:43.719Z,98203.59
2022-09-10T20:06:47.662Z,98198.75
2022-09-10T20:11:51.823Z,98243.19
2022-09-10T20:16:54.641Z,98242.84
2022-09-10T20:21:57.414Z,98237.34
2022-09-10T20:27:01.559Z,98237.69
2022-09-10T20:32:04.396Z,98244.59
2022-09-10T20:37:07.133Z,98245.75
2022-09-10T20:42:11.939Z,98246.28
2022-09-10T20:47:14.752Z,98250.31
2022-09-10T20:52:17.430Z,98256.22
2022-09-10T20:57:22.730Z,98258.72
2022-09-10T21:02:26.286Z,98266.63
2022-09-10T21:07:30.145Z,98269.66
2022-09-10T21:12:34.977Z,98268.66
2022-09-10T21:17:38.055Z,98278.41
2022-09-10T21:22:41.704Z,98279.06
2022-09-10T21:27:47.159Z,98278.22
2022-09-10T21:32:50.088Z,98276.53
2022-09-10T21:37:52.750Z,98285.78
2022-09-10T21:42:56.930Z,98289.28
2022-09-10T21:47:59.702Z,98291.47
2022-09-10T21:53:02.901Z,98296.97
2022-09-10T21:58:06.988Z,98298.66
2022-09-10T22:03:10.578Z,98311.25
2022-09-10T22:08:14.165Z,98304.56
2022-09-10T22:13:18.805Z,98319.00
2022-09-10T22:18:22.467Z,98326.38
2022-09-10T22:23:26.207Z,98325.88
2022-09-10T22:28:34.287Z,98336.47
2022-09-10T22:33:39.033Z,98335.31
2022-09-10T22:38:42.556Z,98343.03
2022-09-10T22:43:47.078Z,98353.09
2022-09-10T22:48:49.759Z,98356.94
2022-09-10T22:53:53.725Z,98355.94
2022-09-10T22:58:59.604Z,98364.34
2022-09-10T23:04:03.735Z,98365.00
2022-09-10T23:09:08.225Z,98378.97
2022-09-10T23:14:15.466Z,98386.84
2022-09-10T23:19:19.889Z,98392.75
2022-09-10T23:24:24.572Z,98394.44
2022-09-10T23:29:28.807Z,98394.28
2022-09-10T23:34:31.476Z,98400.66
2022-09-10T23:39:34.232Z,98405.84
2022-09-10T23:44:38.460Z,98409.41
2022-09-10T23:49:41.237Z,98419.13
2022-09-10T23:54:43.940Z,98421.66
2022-09-10T23:59:47.970Z,98427.19
